Naylor, MO

3:24 PM CST on December 22, 2014 (GMT -0600)
Poplar Bluff Municipal | Change Station
CLOSE
Current Station
Airport
Location: Poplar Bluff,
Elevation: 328 ft
Nearby Weather Stations

Elev 328 ft 36.77 °N, 90.32 °W | Updated 31 minutes ago

Overcast
Overcast
52 °F
Feels Like 52 °F
N
8
Wind Variable Wind from South

Today
High -- | Low -- °F
--% Chance of Precip.
Yesterday
High -- | Low -- °F
Precip. -- in
7:11 AM 4:51 PM
New Moon, 1% visible
Pressure 29.59 in
Visibility 7.0 miles
Clouds Overcast 500 ft
Dew Point 49 °F
Humidity 89%
Rainfall 0.25 in
Snow Depth Not available.
UV 0 out of 12
Pollen 3.90 out of 12
Air Quality Not available.
Flu Activity Not available.
METAR KPOF 222053Z AUTO 18007KT 7SM OVC005 11/09 A2958 RMK AO2 RAE45 SLP018 P0003 60007 T01110094 56029

More Conditions Fewer Conditions

Pressure 29.59 in
Visibility 7.0 miles
Clouds Overcast 500 ft
Dew Point 49 °F
Humidity 89%
Rainfall 0.25 in
Snow Depth Not available.
UV 0 out of 12
Pollen 3.90 out of 12
Air Quality Not available.
Flu Activity Not available.
METAR KPOF 222053Z AUTO 18007KT 7SM OVC005 11/09 A2958 RMK AO2 RAE45 SLP018 P0003 60007 T01110094 56029

More Conditions Fewer Conditions

10-Day Weather Forecast

Almanac

Astronomy

Dec. 22, 2014 Rise Set
Actual Time
Civil Twilight
Nautical Twilight
Astronomical Twilight
Moon
Length of Visible Light
Length of Day
Tomorrow will be .
, % of the Moon is Illuminated

Today's Extremes

State Highs State Lows

Community

WunderPhotos

Upload Photos

1,779,682 photos uploaded!

WunderBlogs® & News

Nearby

Air Quality

  Air Quality AQ Index Pollutant
Not available.

Snow Depth

Station Depth Elevation

Earthquake Activity

City Distance Mag. Time & Date
Minimum magnitude displayed is 2.5.

Coastal Water Temperatures

Place Temperature

Nearby Weather Stations